createdAt,value
2023-03-13T06:02:46.691Z,97.38
2023-03-13T06:05:16.655Z,96.37
2023-03-13T06:07:52.723Z,96.42
2023-03-13T06:10:22.838Z,95.85
2023-03-13T06:13:17.238Z,96.09
2023-03-13T06:16:01.817Z,96.15
2023-03-13T06:18:40.731Z,95.40
2023-03-13T06:21:10.908Z,94.58
2023-03-13T06:23:48.740Z,94.22
2023-03-13T06:26:18.878Z,93.87
2023-03-13T06:28:55.754Z,93.42
2023-03-13T06:31:25.895Z,93.49
2023-03-13T06:34:05.768Z,93.10
2023-03-13T06:36:35.889Z,93.44
2023-03-13T06:39:12.769Z,93.57
2023-03-13T06:41:42.889Z,92.75
2023-03-13T06:44:19.725Z,93.08
2023-03-13T06:46:49.756Z,92.73
2023-03-13T06:49:28.782Z,92.60
2023-03-13T06:52:00.916Z,93.51
2023-03-13T06:54:37.991Z,93.28
2023-03-13T06:57:08.066Z,93.17
2023-03-13T06:59:45.792Z,93.23
2023-03-13T07:02:16.265Z,93.98
2023-03-13T07:04:55.757Z,94.33
2023-03-13T07:07:32.986Z,94.95
2023-03-13T07:10:03.162Z,95.62
2023-03-13T07:12:39.761Z,95.65
2023-03-13T07:15:11.134Z,96.14
2023-03-13T07:17:47.858Z,96.61
2023-03-13T07:20:21.047Z,96.87
2023-03-13T07:23:02.785Z,96.70
2023-03-13T07:25:33.055Z,97.49
2023-03-13T07:28:09.823Z,97.26
2023-03-13T07:30:39.846Z,97.03
2023-03-13T07:33:16.819Z,97.21
2023-03-13T07:36:01.896Z,97.91
2023-03-13T07:38:32.263Z,97.66
2023-03-13T07:41:08.927Z,98.60
2023-03-13T07:43:39.058Z,98.67
2023-03-13T07:46:17.941Z,98.61
2023-03-13T07:48:48.678Z,98.50
2023-03-13T07:51:42.994Z,98.65
2023-03-13T07:54:20.901Z,97.78
2023-03-13T07:56:51.669Z,98.07
2023-03-13T07:59:27.970Z,98.10
2023-03-13T08:01:58.096Z,97.94
2023-03-13T08:04:34.906Z,98.35
2023-03-13T08:07:11.747Z,98.10
2023-03-13T08:09:48.869Z,98.18
2023-03-13T08:12:18.849Z,97.22
2023-03-13T08:14:54.864Z,97.01
2023-03-13T08:17:24.893Z,96.88
2023-03-13T08:20:01.868Z,96.83
2023-03-13T08:22:34.503Z,97.93
2023-03-13T08:25:10.868Z,97.36
2023-03-13T08:27:46.908Z,96.39
2023-03-13T08:30:18.422Z,96.41
2023-03-13T08:32:54.941Z,95.46
2023-03-13T08:35:31.976Z,95.22
2023-03-13T08:38:04.688Z,95.64
2023-03-13T08:40:40.942Z,94.64
2023-03-13T08:43:12.104Z,94.74
2023-03-13T08:45:48.990Z,95.10
2023-03-13T08:48:19.031Z,94.53
2023-03-13T08:50:55.918Z,94.82
2023-03-13T08:53:28.496Z,94.89
2023-03-13T08:56:04.954Z,94.99
2023-03-13T08:58:35.725Z,94.67
2023-03-13T09:01:13.946Z,94.15
2023-03-13T09:03:45.204Z,94.54
2023-03-13T09:06:22.045Z,93.68
2023-03-13T09:08:54.722Z,90.57
2023-03-13T09:11:32.045Z,88.98
2023-03-13T09:14:09.049Z,83.69
2023-03-13T09:16:39.457Z,83.60
2023-03-13T09:19:15.951Z,83.15
2023-03-13T09:21:46.654Z,81.14
2023-03-13T09:24:26.952Z,79.40
2023-03-13T09:27:01.332Z,78.82
2023-03-13T09:29:40.032Z,77.74
2023-03-13T09:32:12.573Z,76.25
2023-03-13T09:34:49.063Z,75.93
2023-03-13T09:37:19.172Z,76.30
2023-03-13T09:39:58.987Z,74.41
2023-03-13T09:42:40.778Z,74.59
2023-03-13T09:45:25.019Z,74.13
2023-03-13T09:48:01.395Z,73.86
2023-03-13T09:50:42.998Z,73.48
2023-03-13T09:53:22.366Z,74.07
2023-03-13T09:56:02.009Z,73.47
2023-03-13T09:58:33.304Z,73.75
2023-03-13T10:01:14.139Z,71.81
2023-03-13T10:03:57.432Z,70.61
2023-03-13T10:06:38.093Z,69.88
2023-03-13T10:09:20.538Z,69.63
2023-03-13T10:12:10.027Z,67.96
2023-03-13T10:14:49.157Z,68.10
2023-03-13T10:17:40.075Z,67.83
2023-03-13T10:20:25.877Z,67.49
2023-03-13T10:23:10.068Z,66.31
2023-03-13T10:25:49.024Z,66.77
2023-03-13T10:28:22.989Z,65.51
2023-03-13T10:31:04.203Z,65.13
2023-03-13T10:33:37.580Z,65.45
2023-03-13T10:36:18.148Z,65.08
2023-03-13T10:38:52.905Z,64.82
2023-03-13T10:41:39.130Z,63.36
2023-03-13T10:44:20.629Z,62.87
2023-03-13T10:47:00.154Z,62.11
2023-03-13T10:49:31.093Z,61.79
2023-03-13T10:52:11.084Z,61.55
2023-03-13T10:54:43.420Z,60.86
2023-03-13T10:57:40.141Z,61.02
2023-03-13T11:00:51.176Z,61.45
2023-03-13T11:03:34.154Z,61.03
2023-03-13T11:06:06.496Z,59.88
2023-03-13T11:08:47.181Z,59.16
2023-03-13T11:11:29.203Z,59.36
2023-03-13T11:14:10.359Z,58.90
2023-03-13T11:16:59.223Z,56.91
2023-03-13T11:20:09.287Z,55.97
2023-03-13T11:22:53.157Z,57.50
2023-03-13T11:25:38.209Z,56.50
2023-03-13T11:28:34.026Z,57.54
2023-03-13T11:31:19.130Z,57.19
2023-03-13T11:34:08.144Z,57.85
2023-03-13T11:36:45.951Z,57.61
2023-03-13T11:39:54.156Z,57.48
2023-03-13T11:43:21.705Z,57.75
2023-03-13T11:46:17.855Z,58.56
2023-03-13T11:49:34.184Z,58.15
2023-03-13T11:52:20.614Z,58.04
2023-03-13T11:55:27.190Z,58.25
2023-03-13T11:58:19.357Z,55.70
2023-03-13T12:01:02.311Z,55.63
2023-03-13T12:03:42.533Z,55.09
2023-03-13T12:06:34.239Z,54.36
2023-03-13T12:09:14.251Z,54.87
2023-03-13T12:12:06.261Z,55.00
2023-03-13T12:14:42.068Z,55.35
2023-03-13T12:17:25.266Z,53.74
2023-03-13T12:20:01.549Z,53.36
2023-03-13T12:22:49.228Z,52.75
2023-03-13T12:25:28.506Z,52.12
2023-03-13T12:28:14.240Z,51.55
2023-03-13T12:30:48.733Z,51.60
2023-03-13T12:33:33.243Z,50.94
2023-03-13T12:36:13.943Z,50.86
2023-03-13T12:39:02.249Z,50.75
2023-03-13T12:41:41.952Z,50.26
2023-03-13T12:44:24.220Z,51.27
2023-03-13T12:47:06.089Z,51.54
2023-03-13T12:50:30.242Z,51.24
2023-03-13T12:53:37.466Z,51.78
2023-03-13T12:56:37.223Z,51.36
2023-03-13T12:59:13.721Z,52.03
2023-03-13T13:01:53.442Z,52.12
2023-03-13T13:04:26.332Z,52.18
2023-03-13T13:07:10.255Z,53.08
2023-03-13T13:10:09.307Z,51.58
2023-03-13T13:12:43.366Z,52.47
2023-03-13T13:15:32.312Z,52.19
2023-03-13T13:18:18.908Z,52.23
2023-03-13T13:20:58.252Z,53.34
2023-03-13T13:23:42.149Z,53.91
2023-03-13T13:26:58.309Z,51.20
2023-03-13T13:30:04.606Z,49.96
2023-03-13T13:32:58.388Z,49.56
2023-03-13T13:35:32.664Z,50.26
2023-03-13T13:38:43.331Z,50.97
2023-03-13T13:41:46.265Z,51.21
2023-03-13T13:44:38.338Z,52.51
2023-03-13T13:47:27.360Z,52.04
2023-03-13T13:50:06.362Z,52.44
2023-03-13T13:52:41.289Z,51.38
2023-03-13T13:55:51.386Z,51.26
2023-03-13T13:58:26.548Z,51.51
